sensor_id;sensor_type;location;lat;lon;timestamp;P1;durP1;ratioP1;P2;durP2;ratioP2
12846;SDS011;6492;48.128;8.320;2022-07-05T00:44:42;2.30;;;2.10;;
12846;SDS011;6492;48.128;8.320;2022-07-05T00:48:44;2.17;;;1.93;;
12846;SDS011;6492;48.128;8.320;2022-07-05T00:52:46;3.10;;;1.80;;
12846;SDS011;6492;48.128;8.320;2022-07-05T00:56:48;4.53;;;2.47;;
12846;SDS011;6492;48.128;8.320;2022-07-05T01:09:13;2.30;;;2.10;;
12846;SDS011;6492;48.128;8.320;2022-07-05T01:38:21;2.60;;;2.00;;
12846;SDS011;6492;48.128;8.320;2022-07-05T02:28:19;2.97;;;2.10;;
12846;SDS011;6492;48.128;8.320;2022-07-05T02:40:43;3.50;;;1.80;;
12846;SDS011;6492;48.128;8.320;2022-07-05T02:44:47;2.33;;;2.03;;
12846;SDS011;6492;48.128;8.320;2022-07-05T02:48:50;1.97;;;1.87;;
12846;SDS011;6492;48.128;8.320;2022-07-05T03:13:47;2.33;;;1.73;;
12846;SDS011;6492;48.128;8.320;2022-07-05T03:26:10;2.37;;;1.90;;
12846;SDS011;6492;48.128;8.320;2022-07-05T03:59:26;2.10;;;1.90;;
12846;SDS011;6492;48.128;8.320;2022-07-05T04:28:33;3.00;;;2.17;;
12846;SDS011;6492;48.128;8.320;2022-07-05T04:36:59;1.90;;;1.70;;
12846;SDS011;6492;48.128;8.320;2022-07-05T04:41:01;3.00;;;1.90;;
12846;SDS011;6492;48.128;8.320;2022-07-05T04:45:05;3.00;;;1.83;;
12846;SDS011;6492;48.128;8.320;2022-07-05T04:49:20;2.90;;;1.80;;
12846;SDS011;6492;48.128;8.320;2022-07-05T04:53:22;2.67;;;1.80;;
12846;SDS011;6492;48.128;8.320;2022-07-05T04:57:24;3.87;;;2.27;;
12846;SDS011;6492;48.128;8.320;2022-07-05T05:09:48;2.90;;;1.90;;
12846;SDS011;6492;48.128;8.320;2022-07-05T05:17:54;4.70;;;1.90;;
12846;SDS011;6492;48.128;8.320;2022-07-05T05:21:57;2.67;;;1.90;;
12846;SDS011;6492;48.128;8.320;2022-07-05T05:46:52;3.37;;;1.87;;
12846;SDS011;6492;48.128;8.320;2022-07-05T06:20:09;1.83;;;1.60;;
12846;SDS011;6492;48.128;8.320;2022-07-05T06:24:12;1.40;;;1.20;;
12846;SDS011;6492;48.128;8.320;2022-07-05T06:28:13;2.83;;;1.85;;
12846;SDS011;6492;48.128;8.320;2022-07-05T06:32:16;1.60;;;1.50;;
12846;SDS011;6492;48.128;8.320;2022-07-05T06:36:19;2.95;;;1.40;;
12846;SDS011;6492;48.128;8.320;2022-07-05T06:40:22;3.85;;;1.42;;
12846;SDS011;6492;48.128;8.320;2022-07-05T06:44:24;1.25;;;1.17;;
12846;SDS011;6492;48.128;8.320;2022-07-05T06:48:26;1.23;;;1.08;;
12846;SDS011;6492;48.128;8.320;2022-07-05T06:52:30;1.67;;;1.15;;
12846;SDS011;6492;48.128;8.320;2022-07-05T06:56:32;3.20;;;1.20;;
12846;SDS011;6492;48.128;8.320;2022-07-05T07:00:34;1.33;;;1.13;;
12846;SDS011;6492;48.128;8.320;2022-07-05T07:04:36;1.70;;;1.05;;
12846;SDS011;6492;48.128;8.320;2022-07-05T07:08:39;2.05;;;1.02;;
12846;SDS011;6492;48.128;8.320;2022-07-05T07:12:58;1.80;;;1.10;;
12846;SDS011;6492;48.128;8.320;2022-07-05T07:17:00;1.52;;;1.00;;
12846;SDS011;6492;48.128;8.320;2022-07-05T07:21:02;4.68;;;1.45;;
12846;SDS011;6492;48.128;8.320;2022-07-05T07:25:06;1.63;;;1.10;;
12846;SDS011;6492;48.128;8.320;2022-07-05T07:29:08;1.13;;;1.05;;
12846;SDS011;6492;48.128;8.320;2022-07-05T07:33:10;1.98;;;1.15;;
12846;SDS011;6492;48.128;8.320;2022-07-05T07:37:12;3.22;;;1.25;;
12846;SDS011;6492;48.128;8.320;2022-07-05T07:41:15;1.20;;;1.10;;
12846;SDS011;6492;48.128;8.320;2022-07-05T07:45:17;2.65;;;1.35;;
12846;SDS011;6492;48.128;8.320;2022-07-05T07:49:19;1.85;;;1.20;;
12846;SDS011;6492;48.128;8.320;2022-07-05T07:53:21;2.25;;;1.45;;
12846;SDS011;6492;48.128;8.320;2022-07-05T07:57:25;1.05;;;1.00;;
12846;SDS011;6492;48.128;8.320;2022-07-05T08:01:27;1.40;;;1.20;;
12846;SDS011;6492;48.128;8.320;2022-07-05T08:05:29;3.05;;;1.13;;
12846;SDS011;6492;48.128;8.320;2022-07-05T08:09:31;2.65;;;1.40;;
12846;SDS011;6492;48.128;8.320;2022-07-05T08:13:34;0.98;;;0.95;;
12846;SDS011;6492;48.128;8.320;2022-07-05T08:17:36;1.45;;;1.25;;
12846;SDS011;6492;48.128;8.320;2022-07-05T08:21:58;1.52;;;1.23;;
12846;SDS011;6492;48.128;8.320;2022-07-05T08:25:59;4.18;;;1.63;;
12846;SDS011;6492;48.128;8.320;2022-07-05T08:30:02;1.60;;;1.33;;
12846;SDS011;6492;48.128;8.320;2022-07-05T08:34:04;1.35;;;1.25;;
12846;SDS011;6492;48.128;8.320;2022-07-05T08:38:06;2.15;;;1.38;;
12846;SDS011;6492;48.128;8.320;2022-07-05T08:42:09;3.85;;;1.60;;
12846;SDS011;6492;48.128;8.320;2022-07-05T08:46:13;2.10;;;1.50;;
12846;SDS011;6492;48.128;8.320;2022-07-05T08:50:16;1.63;;;1.38;;
12846;SDS011;6492;48.128;8.320;2022-07-05T08:54:18;2.72;;;1.40;;
12846;SDS011;6492;48.128;8.320;2022-07-05T08:58:20;1.38;;;1.27;;
12846;SDS011;6492;48.128;8.320;2022-07-05T09:02:23;3.30;;;1.45;;
12846;SDS011;6492;48.128;8.320;2022-07-05T09:06:25;2.47;;;1.30;;
12846;SDS011;6492;48.128;8.320;2022-07-05T09:10:29;2.60;;;1.40;;
12846;SDS011;6492;48.128;8.320;2022-07-05T09:14:32;1.88;;;1.50;;
12846;SDS011;6492;48.128;8.320;2022-07-05T09:18:42;3.55;;;1.63;;
12846;SDS011;6492;48.128;8.320;2022-07-05T09:22:45;2.47;;;1.50;;
12846;SDS011;6492;48.128;8.320;2022-07-05T09:26:49;2.22;;;1.50;;
12846;SDS011;6492;48.128;8.320;2022-07-05T09:30:52;1.80;;;1.33;;
12846;SDS011;6492;48.128;8.320;2022-07-05T09:34:55;1.33;;;1.23;;
12846;SDS011;6492;48.128;8.320;2022-07-05T09:38:59;3.28;;;1.75;;
12846;SDS011;6492;48.128;8.320;2022-07-05T09:43:11;2.35;;;1.48;;
12846;SDS011;6492;48.128;8.320;2022-07-05T09:47:14;1.50;;;1.40;;
12846;SDS011;6492;48.128;8.320;2022-07-05T09:51:18;3.28;;;1.55;;
12846;SDS011;6492;48.128;8.320;2022-07-05T09:55:20;1.77;;;1.60;;
12846;SDS011;6492;48.128;8.320;2022-07-05T09:59:22;1.80;;;1.63;;
12846;SDS011;6492;48.128;8.320;2022-07-05T10:03:25;2.05;;;1.30;;
12846;SDS011;6492;48.128;8.320;2022-07-05T10:07:30;3.88;;;1.60;;
12846;SDS011;6492;48.128;8.320;2022-07-05T10:11:32;2.55;;;1.83;;
12846;SDS011;6492;48.128;8.320;2022-07-05T10:15:35;2.15;;;1.60;;
12846;SDS011;6492;48.128;8.320;2022-07-05T10:19:38;1.60;;;1.40;;
12846;SDS011;6492;48.128;8.320;2022-07-05T10:23:48;2.28;;;1.50;;
12846;SDS011;6492;48.128;8.320;2022-07-05T10:27:53;1.60;;;1.50;;
12846;SDS011;6492;48.128;8.320;2022-07-05T10:31:56;1.45;;;1.33;;
12846;SDS011;6492;48.128;8.320;2022-07-05T10:35:59;1.58;;;1.48;;
12846;SDS011;6492;48.128;8.320;2022-07-05T10:40:04;1.90;;;1.33;;
12846;SDS011;6492;48.128;8.320;2022-07-05T10:44:07;2.63;;;1.48;;
12846;SDS011;6492;48.128;8.320;2022-07-05T10:48:12;1.58;;;1.48;;
12846;SDS011;6492;48.128;8.320;2022-07-05T10:52:22;2.58;;;1.40;;
12846;SDS011;6492;48.128;8.320;2022-07-05T10:56:26;2.03;;;1.40;;
12846;SDS011;6492;48.128;8.320;2022-07-05T11:00:28;2.20;;;1.40;;
12846;SDS011;6492;48.128;8.320;2022-07-05T11:04:30;2.10;;;1.50;;
12846;SDS011;6492;48.128;8.320;2022-07-05T11:17:38;1.52;;;1.42;;
12846;SDS011;6492;48.128;8.320;2022-07-05T11:21:54;2.15;;;1.73;;
12846;SDS011;6492;48.128;8.320;2022-07-05T11:26:01;1.63;;;1.52;;
12846;SDS011;6492;48.128;8.320;2022-07-05T11:30:05;2.30;;;1.60;;
12846;SDS011;6492;48.128;8.320;2022-07-05T11:34:31;1.77;;;1.60;;
12846;SDS011;6492;48.128;8.320;2022-07-05T11:38:34;2.95;;;1.50;;
12846;SDS011;6492;48.128;8.320;2022-07-05T11:42:56;2.80;;;1.80;;
12846;SDS011;6492;48.128;8.320;2022-07-05T11:47:00;2.35;;;1.70;;
12846;SDS011;6492;48.128;8.320;2022-07-05T11:51:11;2.67;;;1.80;;
12846;SDS011;6492;48.128;8.320;2022-07-05T11:55:14;4.18;;;1.70;;
12846;SDS011;6492;48.128;8.320;2022-07-05T11:59:17;2.25;;;1.50;;
12846;SDS011;6492;48.128;8.320;2022-07-05T12:03:21;2.05;;;1.70;;
12846;SDS011;6492;48.128;8.320;2022-07-05T12:07:26;2.30;;;1.67;;
12846;SDS011;6492;48.128;8.320;2022-07-05T12:11:28;3.28;;;1.80;;
12846;SDS011;6492;48.128;8.320;2022-07-05T12:15:47;2.63;;;1.60;;
12846;SDS011;6492;48.128;8.320;2022-07-05T12:19:50;2.88;;;1.83;;
12846;SDS011;6492;48.128;8.320;2022-07-05T12:23:53;4.13;;;1.80;;
12846;SDS011;6492;48.128;8.320;2022-07-05T12:27:56;1.42;;;1.30;;
12846;SDS011;6492;48.128;8.320;2022-07-05T12:31:59;2.38;;;1.70;;
12846;SDS011;6492;48.128;8.320;2022-07-05T12:36:03;1.70;;;1.60;;
12846;SDS011;6492;48.128;8.320;2022-07-05T12:40:11;2.28;;;1.50;;
12846;SDS011;6492;48.128;8.320;2022-07-05T12:44:17;3.40;;;1.92;;
12846;SDS011;6492;48.128;8.320;2022-07-05T12:48:19;4.30;;;1.63;;
12846;SDS011;6492;48.128;8.320;2022-07-05T12:52:32;6.32;;;1.90;;
12846;SDS011;6492;48.128;8.320;2022-07-05T12:56:58;1.70;;;1.60;;
12846;SDS011;6492;48.128;8.320;2022-07-05T13:01:21;3.30;;;1.63;;
12846;SDS011;6492;48.128;8.320;2022-07-05T13:05:25;1.65;;;1.55;;
12846;SDS011;6492;48.128;8.320;2022-07-05T13:09:32;1.75;;;1.45;;
12846;SDS011;6492;48.128;8.320;2022-07-05T13:13:35;1.58;;;1.48;;
12846;SDS011;6492;48.128;8.320;2022-07-05T13:17:37;2.63;;;1.40;;
12846;SDS011;6492;48.128;8.320;2022-07-05T13:21:39;1.42;;;1.33;;
12846;SDS011;6492;48.128;8.320;2022-07-05T13:25:42;1.30;;;1.20;;
12846;SDS011;6492;48.128;8.320;2022-07-05T13:29:44;4.63;;;1.60;;
12846;SDS011;6492;48.128;8.320;2022-07-05T13:33:46;2.80;;;1.65;;
12846;SDS011;6492;48.128;8.320;2022-07-05T13:37:48;2.05;;;1.50;;
12846;SDS011;6492;48.128;8.320;2022-07-05T13:41:52;1.85;;;1.30;;
12846;SDS011;6492;48.128;8.320;2022-07-05T13:45:55;6.38;;;1.40;;
12846;SDS011;6492;48.128;8.320;2022-07-05T13:49:56;2.35;;;1.50;;
12846;SDS011;6492;48.128;8.320;2022-07-05T13:54:12;3.03;;;1.40;;
12846;SDS011;6492;48.128;8.320;2022-07-05T13:58:15;1.77;;;1.48;;
12846;SDS011;6492;48.128;8.320;2022-07-05T14:02:17;1.42;;;1.33;;
12846;SDS011;6492;48.128;8.320;2022-07-05T14:06:19;1.55;;;1.45;;
12846;SDS011;6492;48.128;8.320;2022-07-05T14:10:21;1.90;;;1.40;;
12846;SDS011;6492;48.128;8.320;2022-07-05T14:14:24;2.10;;;1.40;;
12846;SDS011;6492;48.128;8.320;2022-07-05T14:18:26;1.70;;;1.40;;
12846;SDS011;6492;48.128;8.320;2022-07-05T14:22:28;2.70;;;1.50;;
12846;SDS011;6492;48.128;8.320;2022-07-05T14:26:30;3.60;;;1.23;;
12846;SDS011;6492;48.128;8.320;2022-07-05T14:30:34;1.35;;;1.25;;
12846;SDS011;6492;48.128;8.320;2022-07-05T14:34:37;1.60;;;1.30;;
12846;SDS011;6492;48.128;8.320;2022-07-05T14:38:39;1.70;;;1.20;;
12846;SDS011;6492;48.128;8.320;2022-07-05T14:42:43;1.50;;;1.40;;
12846;SDS011;6492;48.128;8.320;2022-07-05T14:46:46;1.50;;;1.40;;
12846;SDS011;6492;48.128;8.320;2022-07-05T14:50:48;1.30;;;1.20;;
12846;SDS011;6492;48.128;8.320;2022-07-05T14:54:50;1.50;;;1.40;;
12846;SDS011;6492;48.128;8.320;2022-07-05T14:58:52;2.00;;;1.52;;
12846;SDS011;6492;48.128;8.320;2022-07-05T15:02:55;1.60;;;1.50;;
12846;SDS011;6492;48.128;8.320;2022-07-05T15:06:57;1.85;;;1.20;;
12846;SDS011;6492;48.128;8.320;2022-07-05T15:10:59;2.33;;;1.50;;
12846;SDS011;6492;48.128;8.320;2022-07-05T15:15:01;2.45;;;1.58;;
12846;SDS011;6492;48.128;8.320;2022-07-05T15:19:05;1.73;;;1.40;;
12846;SDS011;6492;48.128;8.320;2022-07-05T15:23:08;1.40;;;1.30;;
12846;SDS011;6492;48.128;8.320;2022-07-05T15:27:10;2.05;;;1.50;;
12846;SDS011;6492;48.128;8.320;2022-07-05T15:31:12;1.63;;;1.52;;
12846;SDS011;6492;48.128;8.320;2022-07-05T15:35:15;2.72;;;1.52;;
12846;SDS011;6492;48.128;8.320;2022-07-05T15:39:33;1.98;;;1.48;;
12846;SDS011;6492;48.128;8.320;2022-07-05T15:43:37;2.38;;;1.60;;
12846;SDS011;6492;48.128;8.320;2022-07-05T15:47:38;2.83;;;1.30;;
12846;SDS011;6492;48.128;8.320;2022-07-05T15:51:43;2.13;;;1.50;;
12846;SDS011;6492;48.128;8.320;2022-07-05T15:55:45;6.03;;;2.00;;
12846;SDS011;6492;48.128;8.320;2022-07-05T15:59:47;1.30;;;1.20;;
12846;SDS011;6492;48.128;8.320;2022-07-05T16:03:49;2.15;;;1.25;;
12846;SDS011;6492;48.128;8.320;2022-07-05T16:07:52;1.38;;;1.30;;
12846;SDS011;6492;48.128;8.320;2022-07-05T16:11:54;2.38;;;1.60;;
12846;SDS011;6492;48.128;8.320;2022-07-05T16:15:55;1.85;;;1.70;;
12846;SDS011;6492;48.128;8.320;2022-07-05T16:20:12;1.70;;;1.60;;
12846;SDS011;6492;48.128;8.320;2022-07-05T16:24:16;3.10;;;1.70;;
12846;SDS011;6492;48.128;8.320;2022-07-05T16:28:18;2.00;;;1.50;;
12846;SDS011;6492;48.128;8.320;2022-07-05T16:32:21;1.60;;;1.50;;
12846;SDS011;6492;48.128;8.320;2022-07-05T16:36:23;2.63;;;1.60;;
12846;SDS011;6492;48.128;8.320;2022-07-05T16:40:26;1.48;;;1.38;;
12846;SDS011;6492;48.128;8.320;2022-07-05T16:44:28;2.03;;;1.50;;
12846;SDS011;6492;48.128;8.320;2022-07-05T16:48:31;1.95;;;1.63;;
12846;SDS011;6492;48.128;8.320;2022-07-05T16:52:34;1.83;;;1.73;;
12846;SDS011;6492;48.128;8.320;2022-07-05T16:56:39;1.95;;;1.77;;
12846;SDS011;6492;48.128;8.320;2022-07-05T17:00:57;1.50;;;1.40;;
12846;SDS011;6492;48.128;8.320;2022-07-05T17:04:58;2.90;;;1.67;;
12846;SDS011;6492;48.128;8.320;2022-07-05T17:09:00;3.20;;;1.92;;
12846;SDS011;6492;48.128;8.320;2022-07-05T17:13:04;1.48;;;1.38;;
12846;SDS011;6492;48.128;8.320;2022-07-05T17:17:06;2.03;;;1.40;;
12846;SDS011;6492;48.128;8.320;2022-07-05T17:21:08;1.45;;;1.35;;
12846;SDS011;6492;48.128;8.320;2022-07-05T17:25:14;2.63;;;1.70;;
12846;SDS011;6492;48.128;8.320;2022-07-05T17:29:26;1.50;;;1.40;;
12846;SDS011;6492;48.128;8.320;2022-07-05T17:33:28;1.98;;;1.40;;
12846;SDS011;6492;48.128;8.320;2022-07-05T17:37:30;2.00;;;1.40;;
12846;SDS011;6492;48.128;8.320;2022-07-05T17:41:32;2.33;;;1.40;;
12846;SDS011;6492;48.128;8.320;2022-07-05T17:45:35;1.63;;;1.52;;
12846;SDS011;6492;48.128;8.320;2022-07-05T17:53:54;1.65;;;1.55;;
12846;SDS011;6492;48.128;8.320;2022-07-05T17:57:56;1.50;;;1.40;;
12846;SDS011;6492;48.128;8.320;2022-07-05T18:01:59;2.17;;;1.40;;
12846;SDS011;6492;48.128;8.320;2022-07-05T18:06:01;1.52;;;1.42;;
12846;SDS011;6492;48.128;8.320;2022-07-05T18:10:19;1.73;;;1.50;;
12846;SDS011;6492;48.128;8.320;2022-07-05T18:14:21;1.70;;;1.60;;
12846;SDS011;6492;48.128;8.320;2022-07-05T18:18:24;1.83;;;1.73;;
12846;SDS011;6492;48.128;8.320;2022-07-05T18:22:26;1.80;;;1.70;;
12846;SDS011;6492;48.128;8.320;2022-07-05T18:26:36;1.95;;;1.48;;
12846;SDS011;6492;48.128;8.320;2022-07-05T18:30:38;2.13;;;1.70;;
12846;SDS011;6492;48.128;8.320;2022-07-05T18:34:45;2.35;;;1.70;;
12846;SDS011;6492;48.128;8.320;2022-07-05T18:43:23;2.72;;;1.70;;
12846;SDS011;6492;48.128;8.320;2022-07-05T18:47:25;2.00;;;1.80;;
12846;SDS011;6492;48.128;8.320;2022-07-05T18:51:29;1.92;;;1.60;;
12846;SDS011;6492;48.128;8.320;2022-07-05T18:55:30;1.70;;;1.60;;
12846;SDS011;6492;48.128;8.320;2022-07-05T18:59:32;2.63;;;1.60;;
12846;SDS011;6492;48.128;8.320;2022-07-05T19:03:34;1.60;;;1.50;;
12846;SDS011;6492;48.128;8.320;2022-07-05T21:23:52;1.93;;;1.60;;
12846;SDS011;6492;48.128;8.320;2022-07-05T21:27:54;1.50;;;1.40;;
12846;SDS011;6492;48.128;8.320;2022-07-05T21:36:47;2.03;;;1.90;;
12846;SDS011;6492;48.128;8.320;2022-07-05T21:40:58;1.70;;;1.60;;
12846;SDS011;6492;48.128;8.320;2022-07-05T22:58:08;2.00;;;1.80;;
12846;SDS011;6492;48.128;8.320;2022-07-05T23:31:19;1.70;;;1.60;;
12846;SDS011;6492;48.128;8.320;2022-07-05T23:35:21;2.83;;;1.80;;
12846;SDS011;6492;48.128;8.320;2022-07-05T23:39:23;2.00;;;1.80;;
12846;SDS011;6492;48.128;8.320;2022-07-05T23:43:25;1.90;;;1.70;;
12846;SDS011;6492;48.128;8.320;2022-07-05T23:47:29;2.57;;;1.60;;
12846;SDS011;6492;48.128;8.320;2022-07-05T23:51:31;3.50;;;2.00;;
12846;SDS011;6492;48.128;8.320;2022-07-05T23:55:33;3.30;;;1.87;;
12846;SDS011;6492;48.128;8.320;2022-07-05T23:59:35;2.63;;;1.90;;
